Time;durP1;ratioP1;P1;durP2;ratioP2;P2;SDS_P1;SDS_P2;PMS_P1;PMS_P2;Temp;Humidity;BMP_temperature;BMP_pressure;BME280_temperature;BME280_humidity;BME280_pressure;Samples;Min_cycle;Max_cycle;Signal;HPM_P1;HPM_P2
2022/11/11 00:00:24;;;;;;;0.00;0.00;;;;;;;13.74;100.00;101130.75;6257954;23;20476;-75
2022/11/11 00:02:53;;;;;;;0.15;0.15;;;;;;;13.67;100.00;101122.75;6255720;23;20008;-75
2022/11/11 00:05:41;;;;;;;0.00;0.00;;;;;;;13.69;100.00;101128.81;6256634;23;20000;-74
2022/11/11 00:08:09;;;;;;;0.00;0.00;;;;;;;13.67;100.00;101131.00;6256658;23;20106;-74
2022/11/11 00:10:34;;;;;;;0.00;0.00;;;;;;;13.75;100.00;101135.97;6231522;23;20012;-76
2022/11/11 00:13:33;;;;;;;0.00;0.00;;;;;;;13.73;100.00;101112.63;6231850;23;20035;-73
2022/11/11 00:25:04;;;;;;;0.00;0.00;;;;;;;13.83;100.00;101142.03;6256039;23;20000;-71
2022/11/11 00:25:06;;;;;;;0.00;0.00;;;;;;;13.80;100.00;101129.69;6257393;23;20291;-76
2022/11/11 00:27:32;;;;;;;0.00;0.00;;;;;;;13.77;100.00;101121.97;6233371;23;20011;-74
2022/11/11 00:32:52;;;;;;;0.10;0.10;;;;;;;13.74;100.00;101108.75;6256945;23;20004;-74
2022/11/11 00:38:10;;;;;;;0.00;0.00;;;;;;;13.69;100.00;101101.31;6257021;23;20011;-75
2022/11/11 00:41:03;;;;;;;0.00;0.00;;;;;;;13.70;100.00;101118.66;6262719;23;20022;-79
2022/11/11 00:43:37;;;;;;;0.45;0.38;;;;;;;13.66;100.00;101112.84;6221109;23;20018;-78
2022/11/11 00:51:43;;;;;;;0.00;0.00;;;;;;;13.75;100.00;101111.22;6270315;22;20050;-77
2022/11/11 00:54:31;;;;;;;0.45;0.45;;;;;;;13.75;100.00;101116.72;6285034;22;20004;-75
2022/11/11 00:56:59;;;;;;;0.00;0.00;;;;;;;13.73;100.00;101134.59;6239547;22;20083;-77
2022/11/11 00:59:25;;;;;;;0.00;0.00;;;;;;;13.74;100.00;101123.34;6217121;22;20026;-77
2022/11/11 01:02:00;;;;;;;0.00;0.00;;;;;;;13.76;100.00;101110.13;6271747;22;20004;-77
2022/11/11 01:04:28;;;;;;;0.00;0.00;;;;;;;13.76;100.00;101099.16;6291040;22;19999;-76
2022/11/11 01:06:54;;;;;;;6.18;1.80;;;;;;;13.77;100.00;101111.81;6263979;22;19999;-78
2022/11/11 01:09:22;;;;;;;0.00;0.00;;;;;;;13.70;100.00;101102.97;6239337;22;20012;-76
2022/11/11 01:12:06;;;;;;;0.00;0.00;;;;;;;13.71;100.00;101118.38;6240409;22;20092;-77
2022/11/11 01:14:42;;;;;;;0.30;0.30;;;;;;;13.78;100.00;101118.97;6266717;22;20014;-78
2022/11/11 01:17:20;;;;;;;;;;;;;;;;;;;;;
2022/11/11 01:19:45;;;;;;;0.00;0.00;;;;;;;13.74;100.00;101109.59;6268903;22;20003;-78
2022/11/11 01:22:29;;;;;;;0.00;0.00;;;;;;;13.74;100.00;101119.75;6267347;22;20015;-77
2022/11/11 01:25:17;;;;;;;0.00;0.00;;;;;;;13.76;100.00;101101.91;6243901;22;20022;-79
2022/11/11 01:27:51;;;;;;;0.00;0.00;;;;;;;13.79;100.00;101112.34;6270296;22;20038;-76
2022/11/11 01:30:17;;;;;;;0.10;0.10;;;;;;;13.83;100.00;101126.38;6243444;22;20004;-78
2022/11/11 01:32:52;;;;;;;0.00;0.00;;;;;;;13.77;100.00;101111.81;6268036;22;20057;-78
2022/11/11 01:35:36;;;;;;;;;;;;;;;;;;;;;
2022/11/11 01:38:06;;;;;;;0.00;0.00;;;;;;;13.70;100.00;101104.91;6292432;22;20003;-78
2022/11/11 01:40:47;;;;;;;0.30;0.30;;;;;;;13.77;100.00;101114.56;6292768;22;20008;-78
2022/11/11 01:43:24;;;;;;;0.00;0.00;;;;;;;13.78;100.00;101116.22;6267794;22;20003;-77
2022/11/11 01:45:53;;;;;;;2.72;0.30;;;;;;;13.82;100.00;101126.66;6287789;22;20051;-76
2022/11/11 01:52:02;;;;;;;0.00;0.00;;;;;;;13.81;100.00;101125.00;6292283;22;20015;-75
2022/11/11 01:54:51;;;;;;;0.10;0.10;;;;;;;13.76;100.00;101123.88;6261275;22;20007;-74
2022/11/11 01:57:40;;;;;;;;;;;;;;;;;;;;;
2022/11/11 02:00:15;;;;;;;0.00;0.00;;;;;;;13.79;100.00;101117.84;6285049;22;20191;-75
2022/11/11 02:03:05;;;;;;;0.00;0.00;;;;;;;13.78;100.00;101105.22;6262204;22;20004;-77
2022/11/11 02:05:54;;;;;;;0.00;0.00;;;;;;;13.81;100.00;101111.25;6292996;22;20047;-75
2022/11/11 02:08:46;;;;;;;0.00;0.00;;;;;;;13.79;100.00;101106.03;6241283;22;20000;-78
2022/11/11 02:15:28;;;;;;;2.83;2.17;;;;;;;13.79;100.00;101112.34;6303315;22;20034;-82
2022/11/11 02:18:51;;;;;;;0.00;0.00;;;;;;;13.74;100.00;101109.59;6253989;22;20094;-81
2022/11/11 02:21:42;;;;;;;;;;;;;;;13.73;100.00;101107.94;6304789;22;19995;-80
2022/11/11 02:24:55;;;;;;;;;;;;;;;;;;;;;
2022/11/11 02:28:01;;;;;;;0.00;0.00;;;;;;;13.72;100.00;101091.72;6159094;23;20020;-78
2022/11/11 02:33:51;;;;;;;;;;;;;;;13.82;100.00;101099.16;6100528;23;20436;-79
2022/11/11 02:36:16;;;;;;;0.22;0.22;;;;;;;13.73;100.00;101102.44;6192769;22;19932;-77
2022/11/11 02:38:43;;;;;;;0.00;0.00;;;;;;;13.79;100.00;101100.53;6265368;22;20421;-77
2022/11/11 02:43:52;;;;;;;0.00;0.00;;;;;;;13.67;100.00;101095.28;6290306;22;20014;-75
2022/11/11 02:46:17;;;;;;;9.32;0.80;;;;;;;13.66;100.00;101096.38;6206906;22;20043;-76
2022/11/11 02:48:43;;;;;;;0.00;0.00;;;;;;;13.77;100.00;101089.81;6259716;22;20011;-74
2022/11/11 02:51:11;;;;;;;0.00;0.00;;;;;;;13.78;100.00;101085.97;6233702;22;20083;-77
2022/11/11 02:53:36;;;;;;;0.00;0.00;;;;;;;13.77;100.00;101087.06;6239643;22;20023;-76
2022/11/11 02:56:02;;;;;;;0.00;0.00;;;;;;;13.73;100.00;101091.44;6263011;22;20003;-76
2022/11/11 02:58:27;;;;;;;0.00;0.00;;;;;;;13.77;100.00;101086.25;6265564;22;20011;-75
2022/11/11 03:00:53;;;;;;;0.00;0.00;;;;;;;13.78;100.00;101077.72;6264472;22;19999;-77
2022/11/11 03:03:21;;;;;;;0.00;0.00;;;;;;;13.81;100.00;101086.50;6238714;22;20022;-76
2022/11/11 03:05:46;;;;;;;0.00;0.00;;;;;;;13.73;100.00;101074.94;6262989;22;20037;-76
2022/11/11 03:08:15;;;;;;;0.00;0.00;;;;;;;13.77;100.00;101076.06;6236298;22;20011;-76
2022/11/11 03:10:40;;;;;;;0.32;0.20;;;;;;;13.77;100.00;101081.56;6265133;22;20017;-76
2022/11/11 03:13:17;;;;;;;2.05;1.85;;;;;;;13.78;100.00;101082.38;6263903;22;20375;-76
2022/11/11 03:15:42;;;;;;;0.00;0.00;;;;;;;13.81;100.00;101086.50;6239039;22;19987;-76
2022/11/11 03:18:08;;;;;;;0.10;0.10;;;;;;;13.74;100.00;101082.13;6237569;22;20014;-75
2022/11/11 03:23:27;;;;;;;0.00;0.00;;;;;;;13.78;100.00;101074.97;6204266;22;20012;-77
2022/11/11 03:25:52;;;;;;;0.00;0.00;;;;;;;13.77;100.00;101081.56;6237742;22;20015;-75
2022/11/11 03:28:19;;;;;;;0.00;0.00;;;;;;;13.77;100.00;101072.50;6264055;22;20059;-76
2022/11/11 03:30:47;;;;;;;0.00;0.00;;;;;;;13.86;100.00;101072.78;6259894;22;20004;-76
2022/11/11 03:33:22;;;;;;;0.00;0.00;;;;;;;13.76;100.00;101068.91;6236325;22;20170;-75
2022/11/11 03:35:51;;;;;;;0.00;0.00;;;;;;;13.75;100.00;101083.75;6261588;22;20003;-75
2022/11/11 03:38:23;;;;;;;0.10;0.00;;;;;;;13.76;100.00;101079.91;6263682;22;20449;-77
2022/11/11 03:40:52;;;;;;;0.00;0.00;;;;;;;13.74;100.00;101073.88;6234247;22;20069;-76
2022/11/11 03:43:20;;;;;;;0.00;0.00;;;;;;;13.78;100.00;101083.22;6238843;22;20015;-76
2022/11/11 03:45:55;;;;;;;0.00;0.00;;;;;;;13.77;100.00;101072.50;6259216;22;19991;-75
2022/11/11 03:48:21;;;;;;;0.00;0.00;;;;;;;13.68;100.00;101085.09;6262329;22;19992;-76
2022/11/11 03:50:47;;;;;;;0.10;0.10;;;;;;;13.72;100.00;101089.78;6259391;22;20071;-76
2022/11/11 03:53:14;;;;;;;0.10;0.10;;;;;;;13.76;100.00;101090.91;6237540;22;20014;-76
2022/11/11 03:55:40;;;;;;;0.00;0.00;;;;;;;13.76;100.00;101085.41;6260770;22;20010;-75
2022/11/11 03:58:06;;;;;;;0.00;0.00;;;;;;;13.72;100.00;101087.03;6258014;22;20137;-74
2022/11/11 04:00:32;;;;;;;0.00;0.00;;;;;;;13.75;100.00;101071.94;6261110;22;20008;-75
2022/11/11 04:12:16;;;;;;;;;;;;;;;;;;;;;
2022/11/11 04:21:41;;;;;;;0.00;0.00;;;;;;;13.75;100.00;101089.22;6253726;23;20051;-74
2022/11/11 04:23:56;;;;;;;0.00;0.00;;;;;;;13.73;100.00;101074.13;6251197;23;20027;-74
2022/11/11 04:26:21;;;;;;;0.00;0.00;;;;;;;13.83;100.00;101090.66;6255550;22;20004;-75
2022/11/11 04:34:28;;;;;;;0.03;0.03;;;;;;;13.75;100.00;101088.41;6279328;22;20018;-75
2022/11/11 04:36:54;;;;;;;0.20;0.20;;;;;;;13.77;100.00;101103.56;6253586;22;20067;-75
2022/11/11 04:42:06;;;;;;;0.00;0.00;;;;;;;13.77;100.00;101098.06;6278721;22;20669;-74
2022/11/11 04:47:18;;;;;;;;;;;;;;;13.79;100.00;101101.34;6234423;22;20058;-75
2022/11/11 04:49:45;;;;;;;0.00;0.00;;;;;;;13.75;100.00;101089.22;6284970;22;19915;-74
2022/11/11 04:52:25;;;;;;;0.00;0.00;;;;;;;13.75;100.00;101081.00;6281838;22;20008;-74
2022/11/11 04:58:03;;;;;;;0.00;0.00;;;;;;;13.75;100.00;101097.47;6216546;22;20533;-73
2022/11/11 05:00:29;;;;;;;0.00;0.00;;;;;;;13.78;100.00;101105.22;6232970;22;20003;-74
2022/11/11 05:03:16;;;;;;;0.00;0.00;;;;;;;13.79;100.00;101093.09;6255293;22;20449;-74
2022/11/11 05:09:05;;;;;;;0.00;0.00;;;;;;;13.81;100.00;101125.00;6149364;23;20025;-74
2022/11/11 05:11:35;;;;;;;0.08;0.08;;;;;;;13.78;100.00;101115.38;6160761;23;20006;-75
2022/11/11 05:22:34;;;;;;;0.08;0.00;;;;;;;13.70;100.00;101113.97;6266708;22;20052;-75
2022/11/11 05:27:48;;;;;;;0.28;0.28;;;;;;;13.70;100.00;101146.13;6243848;22;20018;-73
2022/11/11 05:30:18;;;;;;;0.00;0.00;;;;;;;13.68;100.00;101120.84;6258652;22;20004;-74
2022/11/11 05:32:43;;;;;;;0.00;0.00;;;;;;;13.70;100.00;101130.47;6236012;22;20015;-75
2022/11/11 05:35:11;;;;;;;0.00;0.00;;;;;;;13.71;100.00;101131.28;6259774;22;20308;-74
2022/11/11 05:37:36;;;;;;;0.00;0.00;;;;;;;13.68;100.00;101115.34;6261547;22;20003;-75
2022/11/11 05:40:14;;;;;;;0.00;0.00;;;;;;;13.70;100.00;101127.72;6258886;22;20008;-73
2022/11/11 05:42:41;;;;;;;0.00;0.00;;;;;;;13.63;100.00;101118.91;6240109;22;20011;-74
2022/11/11 05:45:09;;;;;;;0.00;0.00;;;;;;;13.63;100.00;101129.88;6259501;22;20050;-73
2022/11/11 05:47:39;;;;;;;0.00;0.00;;;;;;;13.66;100.00;101140.34;6229565;23;20020;-73
2022/11/11 05:50:10;;;;;;;0.00;0.00;;;;;;;13.64;100.00;101142.53;6257353;23;20008;-75
2022/11/11 05:52:36;;;;;;;0.00;0.00;;;;;;;13.66;100.00;101151.34;6228948;23;20004;-75
2022/11/11 05:55:01;;;;;;;0.00;0.00;;;;;;;13.68;100.00;101118.09;6231685;23;20088;-74
2022/11/11 05:57:27;;;;;;;0.00;0.00;;;;;;;13.65;100.00;101132.38;6203987;23;20817;-75
2022/11/11 05:59:57;;;;;;;0.00;0.00;;;;;;;13.61;100.00;101126.59;6233861;23;20058;-74
2022/11/11 06:02:25;;;;;;;0.00;0.00;;;;;;;13.65;100.00;101155.16;6205357;23;20513;-75
2022/11/11 06:04:54;;;;;;;0.00;0.00;;;;;;;13.60;100.00;101144.16;6205895;23;20000;-74
2022/11/11 06:07:22;;;;;;;0.00;0.00;;;;;;;13.63;100.00;101149.13;6206160;23;20012;-75
2022/11/11 06:10:29;;;;;;;0.00;0.00;;;;;;;13.63;100.00;101140.88;6180149;23;20046;-75
2022/11/11 06:13:00;;;;;;;0.00;0.00;;;;;;;13.67;100.00;101174.13;6255841;23;20008;-73
2022/11/11 06:15:30;;;;;;;0.00;0.00;;;;;;;13.65;100.00;101138.69;6232173;23;20709;-73
2022/11/11 06:17:55;;;;;;;0.00;0.00;;;;;;;13.65;100.00;101155.16;6229323;23;20008;-74
2022/11/11 06:20:21;;;;;;;0.00;0.00;;;;;;;13.64;100.00;101148.03;6182010;23;20027;-73
2022/11/11 06:22:55;;;;;;;0.00;0.00;;;;;;;13.64;100.00;101142.53;6229514;23;20035;-74
2022/11/11 06:28:06;;;;;;;0.00;0.00;;;;;;;13.67;100.00;101144.75;6231552;23;20050;-74
2022/11/11 06:30:31;;;;;;;0.00;0.00;;;;;;;13.65;100.00;101146.91;6229260;23;20003;-72
2022/11/11 06:32:57;;;;;;;0.15;0.15;;;;;;;13.69;100.00;101145.28;6205438;23;20165;-75
2022/11/11 06:35:23;;;;;;;0.00;0.00;;;;;;;13.70;100.00;101152.44;6231214;23;20011;-76
2022/11/11 06:37:49;;;;;;;0.00;0.00;;;;;;;13.67;100.00;101158.50;6228278;23;20000;-74
2022/11/11 06:40:14;;;;;;;0.00;0.00;;;;;;;13.68;100.00;101170.31;6205424;23;20008;-72
2022/11/11 06:42:52;;;;;;;;;;;;;;;;;;;;;
2022/11/11 06:45:21;;;;;;;0.00;0.00;;;;;;;13.58;100.00;101155.44;6231548;23;20438;-74
2022/11/11 06:47:47;;;;;;;0.00;0.00;;;;;;;13.53;100.00;101146.34;6207399;23;20024;-74
2022/11/11 06:50:12;;;;;;;0.00;0.00;;;;;;;13.48;100.00;101154.53;6204013;23;20035;-75
2022/11/11 06:52:38;;;;;;;0.00;0.00;;;;;;;13.46;100.00;101156.75;6179584;23;20427;-75
2022/11/11 06:55:06;;;;;;;0.22;0.22;;;;;;;13.44;100.00;101166.06;6256480;23;20000;-74
2022/11/11 06:57:32;;;;;;;0.00;0.00;;;;;;;13.38;100.00;101167.16;6229331;23;20008;-75
2022/11/11 07:00:04;;;;;;;0.00;0.00;;;;;;;13.31;100.00;101171.19;6205851;23;20008;-76
2022/11/11 07:02:30;;;;;;;0.00;0.00;;;;;;;13.35;100.00;101167.69;6227625;23;20004;-74
2022/11/11 07:04:55;;;;;;;0.00;0.00;;;;;;;13.30;100.00;101158.56;6230039;23;20015;-75
2022/11/11 07:07:24;;;;;;;0.00;0.00;;;;;;;13.34;100.00;101168.78;6203940;23;20068;-76
2022/11/11 07:10:12;;;;;;;;;;;;;;;;;;;;;
2022/11/11 07:12:52;;;;;;;;;;;;;;;;;;;;;
2022/11/11 07:15:18;;;;;;;0.00;0.00;;;;;;;13.39;100.00;101190.78;6252338;23;20035;-75
2022/11/11 07:17:49;;;;;;;0.00;0.00;;;;;;;13.32;100.00;101181.94;6204338;23;20015;-75
2022/11/11 07:20:20;;;;;;;0.00;0.00;;;;;;;13.40;100.00;101191.59;6229555;23;20000;-74
2022/11/11 07:22:46;;;;;;;0.00;0.00;;;;;;;13.36;100.00;101171.25;6230641;23;20023;-75
2022/11/11 07:25:11;;;;;;;0.00;0.00;;;;;;;13.42;100.00;101195.75;6225162;23;20011;-74
2022/11/11 07:27:43;;;;;;;0.00;0.00;;;;;;;13.40;100.00;101186.97;6205338;23;20124;-74
2022/11/11 07:30:11;;;;;;;0.00;0.00;;;;;;;13.47;100.00;101199.63;6250311;23;20252;-74
2022/11/11 07:32:48;;;;;;;0.00;0.00;;;;;;;13.43;100.00;101202.91;6229741;23;20010;-74
2022/11/11 07:35:15;;;;;;;0.00;0.00;;;;;;;13.49;100.00;101211.16;6226643;23;20083;-74
2022/11/11 07:37:41;;;;;;;0.00;0.00;;;;;;;13.53;100.00;101212.28;6253708;23;20030;-74
2022/11/11 07:40:11;;;;;;;0.00;0.00;;;;;;;13.60;100.00;101210.13;6254570;23;20087;-75
2022/11/11 07:42:45;;;;;;;0.00;0.00;;;;;;;13.56;100.00;101212.56;6258833;23;20004;-73
2022/11/11 07:45:13;;;;;;;0.00;0.00;;;;;;;13.68;100.00;101220.63;6255997;23;20024;-75
2022/11/11 07:47:43;;;;;;;0.00;0.00;;;;;;;13.65;100.00;101217.56;6255826;22;20024;-75
2022/11/11 07:50:13;;;;;;;0.00;0.00;;;;;;;13.73;100.00;101223.38;6231006;23;20008;-76
2022/11/11 07:52:47;;;;;;;0.00;0.00;;;;;;;13.77;100.00;101229.19;6229052;23;20000;-74
2022/11/11 07:55:14;;;;;;;0.00;0.00;;;;;;;13.74;100.00;101230.53;6228474;23;20333;-75
2022/11/11 07:57:44;;;;;;;0.10;0.10;;;;;;;13.72;100.00;101221.72;6230174;22;20358;-74
2022/11/11 08:00:11;;;;;;;0.00;0.00;;;;;;;13.70;100.00;101221.16;6233579;23;19984;-76
2022/11/11 08:02:37;;;;;;;0.00;0.00;;;;;;;13.75;100.00;101220.34;6202360;23;20008;-74
2022/11/11 08:05:05;;;;;;;0.00;0.00;;;;;;;13.77;100.00;101224.50;6255932;23;20004;-73
2022/11/11 08:07:49;;;;;;;0.00;0.00;;;;;;;13.79;100.00;101233.28;6225008;23;20382;-74
2022/11/11 08:10:14;;;;;;;0.08;0.08;;;;;;;13.77;100.00;101216.25;6183264;23;20012;-76
2022/11/11 08:15:29;;;;;;;0.00;0.00;;;;;;;13.89;100.00;101237.19;6224025;23;20562;-74
2022/11/11 08:17:57;;;;;;;0.00;0.00;;;;;;;13.90;100.00;101249.84;6250229;23;20004;-74
2022/11/11 08:20:28;;;;;;;0.65;0.63;;;;;;;13.90;100.00;101244.34;6251818;23;20007;-74
2022/11/11 08:22:56;;;;;;;0.00;0.00;;;;;;;13.88;100.00;101241.03;6228507;23;20007;-75
2022/11/11 08:25:23;;;;;;;0.00;0.00;;;;;;;13.86;100.00;101257.00;6202205;23;20091;-75
2022/11/11 08:27:48;;;;;;;0.00;0.00;;;;;;;13.86;100.00;101257.00;6203170;23;20076;-75
2022/11/11 08:30:23;;;;;;;0.00;0.00;;;;;;;13.86;100.00;101260.56;6201184;23;20031;-74
2022/11/11 08:32:55;;;;;;;1.65;1.55;;;;;;;13.95;100.00;101252.63;6231915;23;20056;-74
2022/11/11 08:35:23;;;;;;;0.00;0.00;;;;;;;13.93;100.00;101261.13;6255098;23;20244;-74
2022/11/11 08:37:48;;;;;;;0.00;0.00;;;;;;;13.92;100.00;101259.47;6204185;23;20031;-75
2022/11/11 08:40:20;;;;;;;0.00;0.00;;;;;;;14.01;100.00;101268.03;6224387;23;20004;-75
2022/11/11 08:42:46;;;;;;;3.15;1.48;;;;;;;13.98;100.00;101254.81;6206271;23;19996;-74
2022/11/11 08:45:14;;;;;;;0.00;0.00;;;;;;;14.07;100.00;101277.94;6203332;23;20008;-74
2022/11/11 08:47:39;;;;;;;0.00;0.00;;;;;;;14.08;100.00;101274.13;6260032;22;19995;-74
2022/11/11 08:50:08;;;;;;;0.00;0.00;;;;;;;14.16;100.00;101280.19;6234641;22;20018;-76
2022/11/11 08:52:33;;;;;;;0.00;0.00;;;;;;;14.11;100.00;101268.06;6262726;22;20372;-75
2022/11/11 08:54:59;;;;;;;0.00;0.00;;;;;;;14.11;100.00;101279.06;6256810;22;20003;-74
2022/11/11 08:57:25;;;;;;;0.00;0.00;;;;;;;14.11;100.00;101283.75;6262473;22;20193;-75
2022/11/11 09:00:01;;;;;;;0.00;0.00;;;;;;;14.14;100.00;101294.22;6262891;22;20007;-75
2022/11/11 09:02:36;;;;;;;3.83;2.28;;;;;;;14.06;100.00;101292.81;6289275;22;20006;-77
2022/11/11 09:05:18;;;;;;;;;;;;;;;14.11;100.00;101295.56;6261441;22;20004;-77
2022/11/11 09:08:10;;;;;;;;;;;;;;;;;;;;;
2022/11/11 09:10:46;;;;;;;;;;;;;;;;;;;;;
2022/11/11 09:13:12;;;;;;;0.00;0.00;;;;;;;14.14;100.00;101284.03;6291001;22;20007;-75
2022/11/11 09:15:40;;;;;;;0.00;0.00;;;;;;;14.16;100.00;101291.19;6262889;22;19996;-75
2022/11/11 09:18:07;;;;;;;0.00;0.00;;;;;;;14.20;100.00;101295.06;6284125;22;20437;-74
2022/11/11 09:20:33;;;;;;;0.00;0.00;;;;;;;14.22;100.00;101296.47;6264865;22;20015;-75
2022/11/11 09:22:58;;;;;;;0.00;0.00;;;;;;;14.19;100.00;101296.16;6265547;22;20003;-77
2022/11/11 09:25:31;;;;;;;0.00;0.00;;;;;;;14.19;100.00;101307.16;6238876;22;20095;-76
2022/11/11 09:28:09;;;;;;;0.00;0.00;;;;;;;14.11;100.00;101312.09;6260266;22;20311;-76
2022/11/11 09:30:37;;;;;;;0.00;0.00;;;;;;;14.06;100.00;101314.81;6265756;22;20007;-77
2022/11/11 09:33:15;;;;;;;;;;;;;;;;;;;;;
2022/11/11 09:35:43;;;;;;;0.00;0.00;;;;;;;14.08;100.00;101320.88;6291590;22;20015;-77
2022/11/11 09:38:12;;;;;;;0.00;0.00;;;;;;;14.11;100.00;101328.59;6261805;22;20015;-77
2022/11/11 09:40:57;;;;;;;0.00;0.00;;;;;;;14.08;100.00;101331.88;6266708;22;20064;-76
2022/11/11 09:43:53;;;;;;;0.20;0.15;;;;;;;14.10;100.00;101337.91;6260560;22;20011;-75
2022/11/11 09:46:34;;;;;;;0.00;0.00;;;;;;;14.17;100.00;101318.44;6291525;22;20019;-76
2022/11/11 09:49:14;;;;;;;0.45;0.38;;;;;;;14.28;100.00;101319.28;6290245;22;20031;-77
2022/11/11 09:52:09;;;;;;;0.52;0.30;;;;;;;14.43;100.00;101319.38;6260924;22;20003;-76
2022/11/11 09:55:03;;;;;;;0.00;0.00;;;;;;;14.80;100.00;101351.41;6270211;22;20011;-75
2022/11/11 09:57:45;;;;;;;0.65;0.63;;;;;;;14.92;100.00;101333.81;6269422;22;19984;-76
2022/11/11 10:00:27;;;;;;;0.00;0.00;;;;;;;14.79;100.00;101330.50;6265223;22;20105;-76
2022/11/11 10:03:39;;;;;;;0.00;0.00;;;;;;;14.73;100.00;101366.53;6269477;22;20000;-76
2022/11/11 10:06:20;;;;;;;1.00;0.68;;;;;;;14.66;100.00;101339.28;6294318;22;20008;-76
2022/11/11 10:09:14;;;;;;;0.00;0.00;;;;;;;14.66;100.00;101356.63;6268673;22;20026;-75
2022/11/11 10:12:07;;;;;;;0.00;0.00;;;;;;;14.83;100.00;101345.38;6194563;22;20071;-76
2022/11/11 10:14:39;;;;;;;0.20;0.20;;;;;;;14.86;100.00;101348.69;6295108;22;20002;-77
2022/11/11 10:17:35;;;;;;;0.00;0.00;;;;;;;14.89;100.00;101350.88;6266927;22;20006;-77
2022/11/11 10:20:25;;;;;;;0.00;0.00;;;;;;;14.94;100.00;101356.41;6270136;22;20008;-78
2022/11/11 10:23:19;;;;;;;0.00;0.00;;;;;;;14.86;100.00;101343.19;6267743;22;20000;-76
2022/11/11 10:26:26;;;;;;;;;;;;;;;;;;;;;
2022/11/11 10:29:21;;;;;;;0.00;0.00;;;;;;;14.79;100.00;101348.94;6296653;22;19991;-77
2022/11/11 10:32:04;;;;;;;0.00;0.00;;;;;;;14.77;100.00;101357.47;6268708;22;20007;-75
2022/11/11 10:34:34;;;;;;;0.00;0.00;;;;;;;14.87;100.00;101361.38;6289288;22;20011;-77
2022/11/11 10:37:02;;;;;;;0.00;0.00;;;;;;;14.95;100.00;101358.91;6264586;22;20011;-75
2022/11/11 10:39:43;;;;;;;0.00;0.00;;;;;;;15.17;100.00;101353.13;6238939;22;20007;-75
2022/11/11 10:42:23;;;;;;;0.00;0.00;;;;;;;15.29;100.00;101363.06;6264510;22;20007;-73
2022/11/11 10:45:05;;;;;;;;;;;;;;;;;;;;;
2022/11/11 10:48:05;;;;;;;0.05;0.05;;;;;;;15.41;100.00;101371.88;6291823;22;20007;-76
2022/11/11 10:50:46;;;;;;;0.00;0.00;;;;;;;15.48;100.00;101364.16;6286734;22;20061;-77
2022/11/11 10:53:43;;;;;;;0.00;0.00;;;;;;;15.40;100.00;101375.72;6262590;22;20010;-77
2022/11/11 10:56:32;;;;;;;0.00;0.00;;;;;;;15.45;100.00;101378.50;6291679;22;20012;-76
2022/11/11 10:59:11;;;;;;;0.00;0.00;;;;;;;15.43;100.00;101379.88;6262891;22;20367;-77
2022/11/11 11:01:51;;;;;;;0.00;0.00;;;;;;;15.46;100.00;101380.16;6261565;22;20018;-76
2022/11/11 11:04:28;;;;;;;0.10;0.10;;;;;;;15.40;99.75;101375.72;6261358;22;20003;-76
2022/11/11 11:06:56;;;;;;;0.00;0.00;;;;;;;15.46;100.00;101380.16;6262398;22;20003;-76
2022/11/11 11:09:34;;;;;;;0.00;0.00;;;;;;;15.52;100.00;101379.06;6266490;22;20004;-76
2022/11/11 11:12:09;;;;;;;0.35;0.22;;;;;;;15.70;99.11;101390.63;6260962;22;20046;-76
2022/11/11 11:15:03;;;;;;;;;;;;;;;;;;;;;
2022/11/11 11:17:39;;;;;;;0.32;0.32;;;;;;;15.62;95.08;101382.91;6268209;22;19999;-78
2022/11/11 11:20:13;;;;;;;0.00;0.00;;;;;;;15.69;97.16;101386.19;6266189;22;20038;-76
2022/11/11 11:23:16;;;;;;;;;;;;;;;;;;;;;
2022/11/11 11:25:55;;;;;;;0.00;0.00;;;;;;;15.79;98.97;101386.22;6284247;22;20038;-76
2022/11/11 11:28:23;;;;;;;0.00;0.00;;;;;;;15.66;99.03;101395.03;6260544;22;20046;-76
2022/11/11 11:30:59;;;;;;;0.00;0.00;;;;;;;15.65;97.22;101382.34;6259396;22;19995;-75
2022/11/11 11:33:25;;;;;;;0.00;0.00;;;;;;;15.51;97.44;101385.66;6260868;22;20326;-75
2022/11/11 11:35:50;;;;;;;0.00;0.00;;;;;;;15.34;99.57;101387.84;6239047;22;19992;-77
2022/11/11 11:38:17;;;;;;;0.00;0.00;;;;;;;15.50;100.00;101375.72;6231355;22;20019;-73
2022/11/11 11:40:55;;;;;;;0.00;0.00;;;;;;;15.70;100.00;101385.91;6287241;22;20026;-75
2022/11/11 11:43:42;;;;;;;0.00;0.00;;;;;;;15.68;100.00;101373.50;6231597;22;20063;-75
2022/11/11 11:46:18;;;;;;;0.00;0.00;;;;;;;15.68;100.00;101385.38;6260438;22;20007;-76
2022/11/11 11:49:16;;;;;;;0.00;0.00;;;;;;;15.63;98.93;101381.81;6257915;22;20699;-76
2022/11/11 11:52:09;;;;;;;0.00;0.00;;;;;;;15.61;99.43;101378.47;6259246;22;20004;-76
2022/11/11 11:54:54;;;;;;;0.00;0.00;;;;;;;15.75;100.00;101387.84;6261369;22;20022;-75
2022/11/11 11:57:40;;;;;;;0.00;0.00;;;;;;;15.95;100.00;101388.97;6286562;22;19980;-76
2022/11/11 12:00:17;;;;;;;0.00;0.00;;;;;;;16.07;100.00;101378.44;6288805;22;20418;-76
2022/11/11 12:02:47;;;;;;;0.00;0.00;;;;;;;16.20;100.00;101383.38;6287588;22;20089;-76
2022/11/11 12:05:39;;;;;;;0.00;0.00;;;;;;;16.18;99.16;101385.59;6261859;22;20082;-77
2022/11/11 12:08:19;;;;;;;0.00;0.00;;;;;;;16.11;100.00;101401.63;6261709;22;20034;-76
2022/11/11 12:10:50;;;;;;;0.10;0.10;;;;;;;16.05;100.00;101388.94;6267502;22;20445;-76
2022/11/11 12:13:43;;;;;;;0.08;0.08;;;;;;;15.96;100.00;101398.88;6260121;22;20022;-77
2022/11/11 12:16:38;;;;;;;0.00;0.00;;;;;;;15.77;100.00;101399.44;6260285;22;20006;-76
2022/11/11 12:19:28;;;;;;;0.17;0.10;;;;;;;15.65;100.00;101382.34;6262631;22;20003;-77
2022/11/11 12:22:20;;;;;;;0.00;0.00;;;;;;;15.54;100.00;101387.84;6259949;22;20003;-78
2022/11/11 12:25:14;;;;;;;0.10;0.10;;;;;;;15.39;100.00;101401.66;6263345;22;19987;-76
2022/11/11 12:27:48;;;;;;;0.10;0.10;;;;;;;15.41;100.00;101398.63;6262535;22;20020;-76
2022/11/11 12:30:29;;;;;;;;;;;;;;;;;;;;;
2022/11/11 12:33:05;;;;;;;0.00;0.00;;;;;;;15.29;100.00;101401.66;6290704;22;19999;-76
2022/11/11 12:35:54;;;;;;;0.00;0.00;;;;;;;15.34;100.00;101388.69;6267590;22;20012;-75
2022/11/11 12:38:20;;;;;;;0.00;0.00;;;;;;;15.43;100.00;101391.72;6261898;22;20042;-77
2022/11/11 12:41:41;;;;;;;0.00;0.00;;;;;;;15.61;100.00;101387.59;6265632;22;20378;-77
2022/11/11 12:44:09;;;;;;;0.00;0.00;;;;;;;15.94;99.45;101406.63;6163794;23;20001;-76
2022/11/11 12:47:16;;;;;;;0.00;0.00;;;;;;;16.07;99.12;101410.72;6256473;22;20016;-75
2022/11/11 12:50:11;;;;;;;0.00;0.00;;;;;;;16.19;97.32;101391.94;6213766;22;20063;-76
2022/11/11 12:53:01;;;;;;;0.00;0.00;;;;;;;16.34;94.22;101386.38;6260854;22;20312;-76
2022/11/11 12:55:39;;;;;;;0.00;0.00;;;;;;;16.65;94.46;101393.72;6260137;22;20008;-74
2022/11/11 12:58:21;;;;;;;0.00;0.00;;;;;;;16.61;92.19;101392.63;6262577;22;19988;-76
2022/11/11 13:01:14;;;;;;;0.00;0.00;;;;;;;16.30;92.43;101390.78;6259625;22;20015;-76
2022/11/11 13:04:19;;;;;;;0.00;0.00;;;;;;;16.10;97.05;101391.69;6260828;22;20016;-76
2022/11/11 13:06:53;;;;;;;0.00;0.00;;;;;;;16.13;98.54;101374.56;6266366;22;19998;-77
2022/11/11 13:09:47;;;;;;;0.00;0.00;;;;;;;16.40;96.48;101378.91;6263185;22;20364;-76
2022/11/11 13:12:35;;;;;;;0.00;0.00;;;;;;;16.40;97.23;101384.41;6292212;22;20051;-76
2022/11/11 13:15:05;;;;;;;0.00;0.00;;;;;;;16.33;93.29;101381.94;6267033;22;20008;-75
2022/11/11 13:17:35;;;;;;;0.00;0.00;;;;;;;16.01;95.39;101368.53;6269123;22;20003;-76
2022/11/11 13:20:35;;;;;;;0.00;0.00;;;;;;;15.91;99.39;101385.09;6269023;22;20142;-76
2022/11/11 13:23:13;;;;;;;0.00;0.00;;;;;;;15.69;95.92;101378.75;6247924;22;20011;-76
2022/11/11 13:26:17;;;;;;;0.00;0.00;;;;;;;15.66;100.00;101367.47;6266588;22;20007;-76
2022/11/11 13:28:55;;;;;;;0.00;0.00;;;;;;;15.89;96.76;101371.59;6262600;22;20085;-77
2022/11/11 13:31:49;;;;;;;;;;;;;;;;;;;;;
2022/11/11 13:34:22;;;;;;;0.10;0.10;;;;;;;15.96;100.00;101360.25;6270014;22;20004;-75
2022/11/11 13:37:09;;;;;;;0.90;0.90;;;;;;;15.81;93.08;101363.88;6264825;22;20015;-75
2022/11/11 13:39:44;;;;;;;0.00;0.00;;;;;;;15.82;98.19;101371.88;6262071;22;20003;-78
2022/11/11 13:42:24;;;;;;;0.00;0.00;;;;;;;16.28;100.00;101364.56;6261892;22;20011;-75
2022/11/11 13:45:02;;;;;;;0.00;0.00;;;;;;;16.55;96.00;101362.25;6260495;22;20331;-75